Time,TemperatureF,DewpointF,PressureIn,WindDirection,WindDirectionDegrees,WindSpeedMPH,WindSpeedGustMPH,Humidity,HourlyPrecipIn,Conditions,Clouds,dailyrainin,SoftwareType,DateUTC
2013-08-04 00:01:00,63.3,55.6,29.66,WNW,284,0.0,0.0,76,0.00,,,0.00,WeatherCatV1.11B39,2013-08-04 04:01:00,
2013-08-04 00:06:00,63.2,55.5,29.65,WNW,284,0.0,0.0,76,0.00,,,0.00,WeatherCatV1.11B39,2013-08-04 04:06:00,
2013-08-04 00:11:00,63.2,55.5,29.65,WNW,284,0.0,0.0,76,0.00,,,0.00,WeatherCatV1.11B39,2013-08-04 04:11:00,
2013-08-04 00:16:00,63.2,55.5,29.65,WNW,284,0.0,0.0,76,0.00,,,0.00,WeatherCatV1.11B39,2013-08-04 04:16:00,
2013-08-04 00:21:00,63.2,55.9,29.65,WNW,284,0.0,0.0,77,0.00,,,0.00,WeatherCatV1.11B39,2013-08-04 04:21:00,
2013-08-04 00:26:00,62.9,55.6,29.64,WNW,284,0.0,0.0,77,0.00,,,0.00,WeatherCatV1.11B39,2013-08-04 04:26:00,
2013-08-04 00:31:00,62.7,55.4,29.64,WNW,284,0.0,0.0,77,0.00,,,0.00,WeatherCatV1.11B39,2013-08-04 04:31:00,
2013-08-04 00:36:00,62.5,55.2,29.64,WNW,284,0.0,0.0,77,0.00,,,0.00,WeatherCatV1.11B39,2013-08-04 04:36:00,
2013-08-04 00:41:00,62.6,55.6,29.64,WNW,285,0.0,0.0,78,0.00,,,0.00,WeatherCatV1.11B39,2013-08-04 04:41:00,
2013-08-04 00:46:00,62.7,55.0,29.64,WNW,294,4.0,4.0,76,0.00,,,0.00,WeatherCatV1.11B39,2013-08-04 04:46:00,
2013-08-04 00:51:00,63.0,55.3,29.64,WNW,296,0.0,0.0,76,0.00,,,0.00,WeatherCatV1.11B39,2013-08-04 04:51:00,
2013-08-04 00:56:00,63.0,54.9,29.64,WNW,296,0.0,0.0,75,0.00,,,0.00,WeatherCatV1.11B39,2013-08-04 04:56:00,
2013-08-04 01:01:00,63.0,54.6,29.64,WNW,296,0.0,0.0,74,0.00,,,0.00,WeatherCatV1.11B39,2013-08-04 05:01:00,
2013-08-04 01:06:00,63.0,54.9,29.64,WNW,296,0.0,0.0,75,0.00,,,0.00,WeatherCatV1.11B39,2013-08-04 05:06:00,
2013-08-04 01:11:00,62.9,54.8,29.64,WNW,296,0.0,0.0,75,0.00,,,0.00,WeatherCatV1.11B39,2013-08-04 05:11:00,
2013-08-04 01:16:00,62.7,54.7,29.64,WNW,296,0.0,0.0,75,0.00,,,0.00,WeatherCatV1.11B39,2013-08-04 05:16:00,
2013-08-04 01:21:00,62.9,55.2,29.64,WNW,296,0.0,0.0,76,0.00,,,0.00,WeatherCatV1.11B39,2013-08-04 05:21:00,
2013-08-04 01:26:00,62.9,55.2,29.64,WNW,297,0.0,1.0,76,0.00,,,0.00,WeatherCatV1.11B39,2013-08-04 05:26:00,
2013-08-04 01:31:00,62.7,54.7,29.64,WNW,299,0.0,0.0,75,0.00,,,0.00,WeatherCatV1.11B39,2013-08-04 05:31:00,
2013-08-04 01:36:00,62.6,54.6,29.63,WNW,299,0.0,2.0,75,0.00,,,0.00,WeatherCatV1.11B39,2013-08-04 05:36:00,
2013-08-04 01:41:00,62.5,54.5,29.63,WNW,299,0.0,0.0,75,0.00,,,0.00,WeatherCatV1.11B39,2013-08-04 05:41:00,
2013-08-04 01:46:00,62.4,54.4,29.63,WNW,299,0.0,0.0,75,0.00,,,0.00,WeatherCatV1.11B39,2013-08-04 05:46:00,
2013-08-04 01:51:00,62.3,54.3,29.63,WNW,299,0.0,0.0,75,0.00,,,0.00,WeatherCatV1.11B39,2013-08-04 05:51:00,
2013-08-04 01:56:00,62.2,54.2,29.64,WNW,299,0.0,0.0,75,0.00,,,0.00,WeatherCatV1.11B39,2013-08-04 05:56:00,
2013-08-04 02:01:00,62.2,54.2,29.64,WNW,299,0.0,0.0,75,0.00,,,0.00,WeatherCatV1.11B39,2013-08-04 06:01:00,
2013-08-04 02:06:00,62.1,54.1,29.64,WNW,299,0.0,0.0,75,0.00,,,0.00,WeatherCatV1.11B39,2013-08-04 06:06:00,
2013-08-04 02:11:00,61.9,54.2,29.64,WNW,299,0.0,0.0,76,0.00,,,0.00,WeatherCatV1.11B39,2013-08-04 06:11:00,
2013-08-04 02:16:00,61.9,54.2,29.64,WNW,299,0.0,0.0,76,0.00,,,0.00,WeatherCatV1.11B39,2013-08-04 06:16:00,
2013-08-04 02:21:00,61.9,54.2,29.64,WNW,300,1.0,3.0,76,0.00,,,0.00,WeatherCatV1.11B39,2013-08-04 06:21:00,
2013-08-04 02:26:00,61.9,54.2,29.64,WNW,301,1.0,3.0,76,0.00,,,0.00,WeatherCatV1.11B39,2013-08-04 06:26:00,
2013-08-04 02:31:00,61.8,54.2,29.63,WNW,301,3.0,4.0,76,0.00,,,0.00,WeatherCatV1.11B39,2013-08-04 06:31:00,
2013-08-04 02:36:00,61.8,54.2,29.64,WNW,301,0.0,4.0,76,0.00,,,0.00,WeatherCatV1.11B39,2013-08-04 06:36:00,
2013-08-04 02:41:00,61.6,54.0,29.64,WNW,302,0.0,0.0,76,0.00,,,0.00,WeatherCatV1.11B39,2013-08-04 06:41:00,
2013-08-04 02:46:00,61.5,53.9,29.64,WNW,302,0.0,0.0,76,0.00,,,0.00,WeatherCatV1.11B39,2013-08-04 06:46:00,
2013-08-04 02:51:00,61.3,53.7,29.63,WNW,302,0.0,0.0,76,0.00,,,0.00,WeatherCatV1.11B39,2013-08-04 06:51:00,
2013-08-04 02:56:00,61.2,53.6,29.63,WNW,302,0.0,0.0,76,0.00,,,0.00,WeatherCatV1.11B39,2013-08-04 06:56:00,
2013-08-04 03:01:00,61.0,53.4,29.63,WNW,302,0.0,0.0,76,0.00,,,0.00,WeatherCatV1.11B39,2013-08-04 07:01:00,
2013-08-04 03:06:00,61.0,53.4,29.63,WNW,302,0.0,0.0,76,0.00,,,0.00,WeatherCatV1.11B39,2013-08-04 07:06:00,
2013-08-04 03:11:00,61.0,53.4,29.64,WNW,302,0.0,0.0,76,0.00,,,0.00,WeatherCatV1.11B39,2013-08-04 07:11:00,
2013-08-04 03:16:00,60.5,52.9,29.63,WNW,303,0.0,0.0,76,0.00,,,0.00,WeatherCatV1.11B39,2013-08-04 07:16:00,
2013-08-04 03:21:00,59.6,52.7,29.63,WNW,303,0.0,0.0,78,0.00,,,0.00,WeatherCatV1.11B39,2013-08-04 07:21:00,
2013-08-04 03:26:00,58.8,52.6,29.63,WNW,303,0.0,0.0,80,0.00,,,0.00,WeatherCatV1.11B39,2013-08-04 07:26:00,
2013-08-04 03:31:00,58.7,52.5,29.64,WNW,303,0.0,0.0,80,0.00,,,0.00,WeatherCatV1.11B39,2013-08-04 07:31:00,
2013-08-04 03:36:00,58.4,52.3,29.63,WNW,303,0.0,0.0,80,0.00,,,0.00,WeatherCatV1.11B39,2013-08-04 07:36:00,
2013-08-04 03:41:00,58.2,52.1,29.63,WNW,303,0.0,0.0,80,0.00,,,0.00,WeatherCatV1.11B39,2013-08-04 07:41:00,
2013-08-04 03:46:00,58.2,52.4,29.64,WNW,303,0.0,0.0,81,0.00,,,0.00,WeatherCatV1.11B39,2013-08-04 07:46:00,
2013-08-04 03:51:00,58.4,52.9,29.64,WNW,303,0.0,0.0,82,0.00,,,0.00,WeatherCatV1.11B39,2013-08-04 07:51:00,
2013-08-04 03:56:00,58.4,53.6,29.64,WNW,303,0.0,0.0,84,0.00,,,0.00,WeatherCatV1.11B39,2013-08-04 07:56:00,
2013-08-04 04:01:00,58.2,53.1,29.64,WNW,303,0.0,0.0,83,0.00,,,0.00,WeatherCatV1.11B39,2013-08-04 08:01:00,
2013-08-04 04:06:00,57.9,53.1,29.64,WNW,303,0.0,0.0,84,0.00,,,0.00,WeatherCatV1.11B39,2013-08-04 08:06:00,
2013-08-04 04:11:00,57.7,52.9,29.64,WNW,302,0.0,0.0,84,0.00,,,0.00,WeatherCatV1.11B39,2013-08-04 08:11:00,
2013-08-04 04:16:00,57.3,52.5,29.64,WNW,302,0.0,0.0,84,0.00,,,0.00,WeatherCatV1.11B39,2013-08-04 08:16:00,
2013-08-04 04:21:00,57.2,52.7,29.64,WNW,303,0.0,0.0,85,0.00,,,0.00,WeatherCatV1.11B39,2013-08-04 08:21:00,
2013-08-04 04:26:00,57.2,53.0,29.64,WNW,303,0.0,0.0,86,0.00,,,0.00,WeatherCatV1.11B39,2013-08-04 08:26:00,
2013-08-04 04:31:00,57.3,53.5,29.64,WNW,303,0.0,0.0,87,0.00,,,0.00,WeatherCatV1.11B39,2013-08-04 08:31:00,
2013-08-04 04:36:00,57.9,54.1,29.64,WNW,303,0.0,0.0,87,0.00,,,0.00,WeatherCatV1.11B39,2013-08-04 08:36:00,
2013-08-04 04:41:00,58.5,54.3,29.63,WNW,303,0.0,0.0,86,0.00,,,0.00,WeatherCatV1.11B39,2013-08-04 08:41:00,
2013-08-04 04:46:00,59.0,54.2,29.63,WNW,303,0.0,0.0,84,0.00,,,0.00,WeatherCatV1.11B39,2013-08-04 08:46:00,
2013-08-04 04:51:00,59.2,54.4,29.63,WNW,303,0.0,0.0,84,0.00,,,0.00,WeatherCatV1.11B39,2013-08-04 08:51:00,
2013-08-04 04:56:00,58.5,53.0,29.64,WNW,303,0.0,0.0,82,0.00,,,0.00,WeatherCatV1.11B39,2013-08-04 08:56:00,
2013-08-04 05:01:00,57.9,52.8,29.64,WNW,303,0.0,0.0,83,0.00,,,0.00,WeatherCatV1.11B39,2013-08-04 09:01:00,
2013-08-04 05:06:00,57.5,52.4,29.64,WNW,303,0.0,0.0,83,0.00,,,0.00,WeatherCatV1.11B39,2013-08-04 09:06:00,
2013-08-04 05:11:00,57.3,52.5,29.64,WNW,303,0.0,0.0,84,0.00,,,0.00,WeatherCatV1.11B39,2013-08-04 09:11:00,
2013-08-04 05:16:00,57.2,52.4,29.64,WNW,303,0.0,0.0,84,0.00,,,0.00,WeatherCatV1.11B39,2013-08-04 09:16:00,
2013-08-04 05:21:00,57.2,52.7,29.64,WNW,303,0.0,0.0,85,0.00,,,0.00,WeatherCatV1.11B39,2013-08-04 09:21:00,
2013-08-04 05:26:00,57.2,53.0,29.64,WNW,303,0.0,0.0,86,0.00,,,0.00,WeatherCatV1.11B39,2013-08-04 09:26:00,
2013-08-04 05:31:00,57.0,52.9,29.64,WNW,303,0.0,0.0,86,0.00,,,0.00,WeatherCatV1.11B39,2013-08-04 09:31:00,
2013-08-04 05:36:00,57.0,52.5,29.64,WNW,303,0.0,0.0,85,0.00,,,0.00,WeatherCatV1.11B39,2013-08-04 09:36:00,
2013-08-04 05:41:00,56.9,52.8,29.64,WNW,303,0.0,0.0,86,0.00,,,0.00,WeatherCatV1.11B39,2013-08-04 09:41:00,
2013-08-04 05:46:00,56.9,52.8,29.64,WNW,303,0.0,0.0,86,0.00,,,0.00,WeatherCatV1.11B39,2013-08-04 09:46:00,
2013-08-04 05:51:00,56.9,52.8,29.65,WNW,303,0.0,0.0,86,0.00,,,0.00,WeatherCatV1.11B39,2013-08-04 09:51:00,
2013-08-04 05:56:00,57.0,53.2,29.64,WNW,303,0.0,0.0,87,0.00,,,0.00,WeatherCatV1.11B39,2013-08-04 09:56:00,
2013-08-04 06:01:00,57.6,54.1,29.64,WNW,303,0.0,0.0,88,0.00,,,0.00,WeatherCatV1.11B39,2013-08-04 10:01:00,
2013-08-04 06:06:00,58.1,54.6,29.64,WNW,303,0.0,0.0,88,0.00,,,0.00,WeatherCatV1.11B39,2013-08-04 10:06:00,
2013-08-04 06:11:00,58.7,54.5,29.64,WNW,303,0.0,0.0,86,0.00,,,0.00,WeatherCatV1.11B39,2013-08-04 10:11:00,
2013-08-04 06:16:00,59.3,54.8,29.64,WNW,303,0.0,0.0,85,0.00,,,0.00,WeatherCatV1.11B39,2013-08-04 10:16:00,
2013-08-04 06:21:00,59.5,55.3,29.64,WNW,300,4.0,5.0,86,0.00,,,0.00,WeatherCatV1.11B39,2013-08-04 10:21:00,
2013-08-04 06:26:00,59.6,54.8,29.64,WNW,301,3.0,4.0,84,0.00,,,0.00,WeatherCatV1.11B39,2013-08-04 10:26:00,
2013-08-04 06:31:00,59.9,55.0,29.64,WNW,300,3.0,5.0,84,0.00,,,0.00,WeatherCatV1.11B39,2013-08-04 10:31:00,
2013-08-04 06:36:00,60.1,54.9,29.64,WNW,302,4.0,5.0,83,0.00,,,0.00,WeatherCatV1.11B39,2013-08-04 10:36:00,
2013-08-04 06:41:00,60.2,54.7,29.64,WNW,297,7.0,7.0,82,0.00,,,0.00,WeatherCatV1.11B39,2013-08-04 10:41:00,
2013-08-04 06:46:00,60.4,55.2,29.64,WNW,295,2.0,5.0,83,0.00,,,0.00,WeatherCatV1.11B39,2013-08-04 10:46:00,
2013-08-04 06:51:00,60.2,54.7,29.65,WNW,300,3.0,5.0,82,0.00,,,0.00,WeatherCatV1.11B39,2013-08-04 10:51:00,
2013-08-04 06:56:00,60.4,54.9,29.64,WNW,299,3.0,4.0,82,0.00,,,0.00,WeatherCatV1.11B39,2013-08-04 10:56:00,
2013-08-04 07:01:00,60.2,54.3,29.64,WNW,299,0.0,5.0,81,0.00,,,0.00,WeatherCatV1.11B39,2013-08-04 11:01:00,
2013-08-04 07:06:00,60.2,54.7,29.65,WNW,298,1.0,6.0,82,0.00,,,0.00,WeatherCatV1.11B39,2013-08-04 11:06:00,
2013-08-04 07:11:00,60.2,54.3,29.64,WNW,298,4.0,5.0,81,0.00,,,0.00,WeatherCatV1.11B39,2013-08-04 11:11:00,
2013-08-04 07:16:00,60.4,54.9,29.64,WNW,299,1.0,5.0,82,0.00,,,0.00,WeatherCatV1.11B39,2013-08-04 11:16:00,
2013-08-04 07:21:00,60.7,55.2,29.64,WNW,302,4.0,5.0,82,0.00,,,0.00,WeatherCatV1.11B39,2013-08-04 11:21:00,
2013-08-04 07:26:00,61.0,55.5,29.64,WNW,296,3.0,5.0,82,0.00,,,0.00,WeatherCatV1.11B39,2013-08-04 11:26:00,
2013-08-04 07:31:00,61.5,55.6,29.64,WNW,295,3.0,6.0,81,0.00,,,0.00,WeatherCatV1.11B39,2013-08-04 11:31:00,
2013-08-04 07:36:00,61.8,55.9,29.65,WNW,295,0.0,5.0,81,0.00,,,0.00,WeatherCatV1.11B39,2013-08-04 11:36:00,
2013-08-04 07:41:00,62.1,55.9,29.64,WNW,297,6.0,6.0,80,0.00,,,0.00,WeatherCatV1.11B39,2013-08-04 11:41:00,
2013-08-04 07:46:00,62.4,56.1,29.64,WNW,298,4.0,7.0,80,0.00,,,0.00,WeatherCatV1.11B39,2013-08-04 11:46:00,
2013-08-04 07:51:00,62.7,55.7,29.64,WNW,296,3.0,5.0,78,0.00,,,0.00,WeatherCatV1.11B39,2013-08-04 11:51:00,
2013-08-04 07:56:00,63.0,56.0,29.65,NW,312,2.0,7.0,78,0.00,,,0.00,WeatherCatV1.11B39,2013-08-04 11:56:00,
2013-08-04 08:01:00,63.4,56.1,29.65,NW,312,3.0,5.0,77,0.00,,,0.00,WeatherCatV1.11B39,2013-08-04 12:01:00,
2013-08-04 08:06:00,63.5,55.8,29.64,WNW,297,3.0,7.0,76,0.00,,,0.00,WeatherCatV1.11B39,2013-08-04 12:06:00,
2013-08-04 08:11:00,63.9,56.5,29.64,WNW,298,0.0,2.0,77,0.00,,,0.00,WeatherCatV1.11B39,2013-08-04 12:11:00,
2013-08-04 08:16:00,64.2,56.5,29.64,WNW,292,0.0,0.0,76,0.00,,,0.00,WeatherCatV1.11B39,2013-08-04 12:16:00,
2013-08-04 08:21:00,64.5,56.8,29.64,WNW,294,0.0,2.0,76,0.00,,,0.00,WeatherCatV1.11B39,2013-08-04 12:21:00,
2013-08-04 08:26:00,64.6,56.9,29.64,WNW,294,4.0,4.0,76,0.00,,,0.00,WeatherCatV1.11B39,2013-08-04 12:26:00,
2013-08-04 08:31:00,65.0,56.9,29.64,WNW,298,0.0,0.0,75,0.00,,,0.00,WeatherCatV1.11B39,2013-08-04 12:31:00,
2013-08-04 08:36:00,65.5,57.0,29.64,WNW,298,0.0,3.0,74,0.00,,,0.00,WeatherCatV1.11B39,2013-08-04 12:36:00,
2013-08-04 08:41:00,65.9,57.4,29.64,WNW,298,0.0,1.0,74,0.00,,,0.00,WeatherCatV1.11B39,2013-08-04 12:41:00,
2013-08-04 08:46:00,66.4,57.5,29.64,WNW,298,0.0,1.0,73,0.00,,,0.00,WeatherCatV1.11B39,2013-08-04 12:46:00,
2013-08-04 08:51:00,66.9,58.0,29.65,WNW,296,1.0,6.0,73,0.00,,,0.00,WeatherCatV1.11B39,2013-08-04 12:51:00,
2013-08-04 08:56:00,67.5,57.8,29.64,NNW,333,0.0,1.0,71,0.00,,,0.00,WeatherCatV1.11B39,2013-08-04 12:56:00,
2013-08-04 09:01:00,67.8,58.0,29.64,WSW,255,2.0,5.0,71,0.00,,,0.00,WeatherCatV1.11B39,2013-08-04 13:01:00,
2013-08-04 09:06:00,68.3,57.7,29.64,NNW,341,4.0,4.0,69,0.00,,,0.00,WeatherCatV1.11B39,2013-08-04 13:06:00,
2013-08-04 09:11:00,68.6,58.0,29.64,NNW,332,3.0,7.0,69,0.00,,,0.00,WeatherCatV1.11B39,2013-08-04 13:11:00,
2013-08-04 09:16:00,68.8,57.4,29.63,WNW,289,2.0,2.0,67,0.00,,,0.00,WeatherCatV1.11B39,2013-08-04 13:16:00,
2013-08-04 09:21:00,69.1,57.7,29.64,WNW,295,3.0,3.0,67,0.00,,,0.00,WeatherCatV1.11B39,2013-08-04 13:21:00,
2013-08-04 09:26:00,69.4,57.1,29.64,WNW,293,3.0,5.0,65,0.00,,,0.00,WeatherCatV1.11B39,2013-08-04 13:26:00,
2013-08-04 09:31:00,69.6,56.9,29.64,WNW,300,0.0,1.0,64,0.00,,,0.00,WeatherCatV1.11B39,2013-08-04 13:31:00,
2013-08-04 09:36:00,69.9,57.6,29.64,WNW,296,5.0,6.0,65,0.00,,,0.00,WeatherCatV1.11B39,2013-08-04 13:36:00,
2013-08-04 09:41:00,70.1,57.3,29.64,WNW,293,0.0,0.0,64,0.00,,,0.00,WeatherCatV1.11B39,2013-08-04 13:41:00,
2013-08-04 09:46:00,70.4,57.2,29.64,WNW,293,0.0,0.0,63,0.00,,,0.00,WeatherCatV1.11B39,2013-08-04 13:46:00,
2013-08-04 09:51:00,70.8,57.6,29.63,WNW,292,2.0,7.0,63,0.00,,,0.00,WeatherCatV1.11B39,2013-08-04 13:51:00,
2013-08-04 09:56:00,70.8,57.6,29.64,North,351,5.0,5.0,63,0.00,,,0.00,WeatherCatV1.11B39,2013-08-04 13:56:00,
2013-08-04 10:01:00,70.9,57.2,29.64,WSW,247,4.0,5.0,62,0.00,,,0.00,WeatherCatV1.11B39,2013-08-04 14:01:00,
2013-08-04 10:06:00,71.2,57.9,29.64,West,278,2.0,5.0,63,0.00,,,0.00,WeatherCatV1.11B39,2013-08-04 14:06:00,
2013-08-04 10:11:00,71.4,57.2,29.64,WSW,254,5.0,6.0,61,0.00,,,0.00,WeatherCatV1.11B39,2013-08-04 14:11:00,
2013-08-04 10:16:00,71.8,58.1,29.64,NNW,338,7.0,7.0,62,0.00,,,0.00,WeatherCatV1.11B39,2013-08-04 14:16:00,
2013-08-04 10:21:00,71.9,58.2,29.64,West,279,0.0,0.0,62,0.00,,,0.00,WeatherCatV1.11B39,2013-08-04 14:21:00,
2013-08-04 10:26:00,71.8,57.2,29.64,WNW,295,4.0,7.0,60,0.00,,,0.00,WeatherCatV1.11B39,2013-08-04 14:26:00,
2013-08-04 10:31:00,71.4,56.3,29.64,WNW,294,3.0,5.0,59,0.00,,,0.00,WeatherCatV1.11B39,2013-08-04 14:31:00,
2013-08-04 10:36:00,71.2,57.0,29.64,WNW,294,2.0,5.0,61,0.00,,,0.00,WeatherCatV1.11B39,2013-08-04 14:36:00,
2013-08-04 10:41:00,71.2,57.5,29.64,WNW,294,0.0,1.0,62,0.00,,,0.00,WeatherCatV1.11B39,2013-08-04 14:41:00,
2013-08-04 10:46:00,71.4,57.2,29.64,WNW,295,0.0,0.0,61,0.00,,,0.00,WeatherCatV1.11B39,2013-08-04 14:46:00,
2013-08-04 10:51:00,71.8,57.6,29.64,WNW,295,0.0,0.0,61,0.00,,,0.00,WeatherCatV1.11B39,2013-08-04 14:51:00,
2013-08-04 10:56:00,72.1,56.0,29.64,NNW,336,4.0,5.0,57,0.00,,,0.00,WeatherCatV1.11B39,2013-08-04 14:56:00,
2013-08-04 11:01:00,72.5,56.4,29.64,West,279,0.0,3.0,57,0.00,,,0.00,WeatherCatV1.11B39,2013-08-04 15:01:00,
2013-08-04 11:06:00,73.0,57.8,29.64,West,278,0.0,0.0,59,0.00,,,0.00,WeatherCatV1.11B39,2013-08-04 15:06:00,
2013-08-04 11:11:00,73.5,57.3,29.64,West,271,0.0,1.0,57,0.00,,,0.00,WeatherCatV1.11B39,2013-08-04 15:11:00,
2013-08-04 11:16:00,73.8,57.1,29.64,NW,309,0.0,0.0,56,0.00,,,0.00,WeatherCatV1.11B39,2013-08-04 15:16:00,
2013-08-04 11:21:00,74.2,58.0,29.64,NW,324,0.0,0.0,57,0.00,,,0.00,WeatherCatV1.11B39,2013-08-04 15:21:00,
2013-08-04 11:26:00,74.5,57.3,29.64,NW,325,0.0,0.0,55,0.00,,,0.00,WeatherCatV1.11B39,2013-08-04 15:26:00,
2013-08-04 11:31:00,74.8,58.0,29.64,WNW,303,0.0,0.0,56,0.00,,,0.00,WeatherCatV1.11B39,2013-08-04 15:31:00,
2013-08-04 11:36:00,75.2,57.9,29.64,WNW,302,0.0,1.0,55,0.00,,,0.00,WeatherCatV1.11B39,2013-08-04 15:36:00,
2013-08-04 11:41:00,75.2,56.3,29.64,WNW,291,2.0,7.0,52,0.00,,,0.00,WeatherCatV1.11B39,2013-08-04 15:41:00,
2013-08-04 11:46:00,74.8,57.5,29.65,WNW,294,0.0,0.0,55,0.00,,,0.00,WeatherCatV1.11B39,2013-08-04 15:46:00,
2013-08-04 11:51:00,75.0,56.7,29.64,SE,144,0.0,0.0,53,0.00,,,0.00,WeatherCatV1.11B39,2013-08-04 15:51:00,
2013-08-04 11:56:00,75.5,57.7,29.64,West,277,0.0,0.0,54,0.00,,,0.00,WeatherCatV1.11B39,2013-08-04 15:56:00,
2013-08-04 12:01:00,76.0,57.1,29.63,SSE,165,0.0,0.0,52,0.00,,,0.00,WeatherCatV1.11B39,2013-08-04 16:01:00,
2013-08-04 12:06:00,75.5,57.2,29.64,WNW,297,3.0,3.0,53,0.00,,,0.00,WeatherCatV1.11B39,2013-08-04 16:06:00,
2013-08-04 12:11:00,75.2,56.3,29.64,WNW,296,0.0,3.0,52,0.00,,,0.00,WeatherCatV1.11B39,2013-08-04 16:11:00,
2013-08-04 12:16:00,75.5,57.7,29.64,WNW,296,0.0,0.0,54,0.00,,,0.00,WeatherCatV1.11B39,2013-08-04 16:16:00,
2013-08-04 12:21:00,75.7,57.3,29.63,WNW,297,0.0,0.0,53,0.00,,,0.00,WeatherCatV1.11B39,2013-08-04 16:21:00,
2013-08-04 12:26:00,75.9,55.9,29.63,WNW,296,0.0,0.0,50,0.00,,,0.00,WeatherCatV1.11B39,2013-08-04 16:26:00,
2013-08-04 12:31:00,75.9,56.5,29.63,West,266,0.0,1.0,51,0.00,,,0.00,WeatherCatV1.11B39,2013-08-04 16:31:00,
2013-08-04 12:36:00,75.3,56.4,29.63,WNW,296,0.0,6.0,52,0.00,,,0.00,WeatherCatV1.11B39,2013-08-04 16:36:00,
2013-08-04 12:41:00,75.4,58.6,29.62,WNW,296,0.0,0.0,56,0.00,,,0.00,WeatherCatV1.11B39,2013-08-04 16:41:00,
2013-08-04 12:46:00,75.5,58.2,29.62,NW,305,0.0,0.0,55,0.00,,,0.00,WeatherCatV1.11B39,2013-08-04 16:46:00,
2013-08-04 12:51:00,75.9,56.5,29.62,NW,307,4.0,6.0,51,0.00,,,0.00,WeatherCatV1.11B39,2013-08-04 16:51:00,
2013-08-04 12:56:00,75.5,55.5,29.63,WNW,300,4.0,5.0,50,0.00,,,0.00,WeatherCatV1.11B39,2013-08-04 16:56:00,
2013-08-04 13:01:00,75.5,57.2,29.62,WNW,300,0.0,0.0,53,0.00,,,0.00,WeatherCatV1.11B39,2013-08-04 17:01:00,
2013-08-04 13:07:00,75.9,58.0,29.62,WNW,301,0.0,0.0,54,0.00,,,0.00,WeatherCatV1.11B39,2013-08-04 17:07:00,
2013-08-04 13:12:00,76.1,57.2,29.62,WNW,301,0.0,4.0,52,0.00,,,0.00,WeatherCatV1.11B39,2013-08-04 17:12:00,
2013-08-04 13:17:00,76.2,56.7,29.62,WNW,301,0.0,0.0,51,0.00,,,0.00,WeatherCatV1.11B39,2013-08-04 17:17:00,
2013-08-04 13:22:00,76.4,58.0,29.62,WNW,301,0.0,0.0,53,0.00,,,0.00,WeatherCatV1.11B39,2013-08-04 17:22:00,
2013-08-04 13:27:00,76.1,55.0,29.62,WNW,292,0.0,1.0,48,0.00,,,0.00,WeatherCatV1.11B39,2013-08-04 17:27:00,
2013-08-04 13:32:00,75.3,54.8,29.61,WNW,296,2.0,5.0,49,0.00,,,0.00,WeatherCatV1.11B39,2013-08-04 17:32:00,
2013-08-04 13:37:00,75.2,55.8,29.62,WNW,297,0.0,0.0,51,0.00,,,0.00,WeatherCatV1.11B39,2013-08-04 17:37:00,
2013-08-04 13:42:00,75.0,56.7,29.61,WNW,297,0.0,0.0,53,0.00,,,0.00,WeatherCatV1.11B39,2013-08-04 17:42:00,
2013-08-04 13:47:00,74.7,55.3,29.61,WNW,296,0.0,4.0,51,0.00,,,0.00,WeatherCatV1.11B39,2013-08-04 17:47:00,
2013-08-04 13:52:00,74.5,54.6,29.62,WNW,298,0.0,0.0,50,0.00,,,0.00,WeatherCatV1.11B39,2013-08-04 17:52:00,
2013-08-04 13:57:00,74.5,56.2,29.61,WNW,298,0.0,0.0,53,0.00,,,0.00,WeatherCatV1.11B39,2013-08-04 17:57:00,
2013-08-04 14:02:00,74.8,57.0,29.61,WNW,298,0.0,1.0,54,0.00,,,0.00,WeatherCatV1.11B39,2013-08-04 18:02:00,
2013-08-04 14:07:00,75.2,56.3,29.60,NNW,335,7.0,7.0,52,0.00,,,0.00,WeatherCatV1.11B39,2013-08-04 18:07:00,
2013-08-04 14:12:00,75.2,56.3,29.61,WNW,298,3.0,9.0,52,0.00,,,0.00,WeatherCatV1.11B39,2013-08-04 18:12:00,
2013-08-04 14:17:00,75.2,54.7,29.61,WNW,297,3.0,7.0,49,0.00,,,0.00,WeatherCatV1.11B39,2013-08-04 18:17:00,
2013-08-04 14:22:00,75.2,55.3,29.60,NW,326,3.0,5.0,50,0.00,,,0.00,WeatherCatV1.11B39,2013-08-04 18:22:00,
2013-08-04 14:27:00,75.5,56.6,29.61,SW,233,2.0,6.0,52,0.00,,,0.00,WeatherCatV1.11B39,2013-08-04 18:27:00,
2013-08-04 14:32:00,75.7,55.7,29.60,WNW,293,0.0,6.0,50,0.00,,,0.00,WeatherCatV1.11B39,2013-08-04 18:32:00,
2013-08-04 14:37:00,75.7,54.0,29.60,WNW,300,0.0,0.0,47,0.00,,,0.00,WeatherCatV1.11B39,2013-08-04 18:37:00,
2013-08-04 14:42:00,75.9,55.3,29.60,WNW,295,1.0,1.0,49,0.00,,,0.00,WeatherCatV1.11B39,2013-08-04 18:42:00,
2013-08-04 14:47:00,75.9,54.8,29.60,NW,305,4.0,8.0,48,0.00,,,0.00,WeatherCatV1.11B39,2013-08-04 18:47:00,
2013-08-04 14:52:00,75.9,53.6,29.60,West,266,3.0,7.0,46,0.00,,,0.00,WeatherCatV1.11B39,2013-08-04 18:52:00,
2013-08-04 14:57:00,76.1,57.2,29.60,WNW,292,0.0,0.0,52,0.00,,,0.00,WeatherCatV1.11B39,2013-08-04 18:57:00,
2013-08-04 15:02:00,76.2,56.2,29.60,WNW,295,0.0,3.0,50,0.00,,,0.00,WeatherCatV1.11B39,2013-08-04 19:02:00,
2013-08-04 15:07:00,76.2,55.1,29.60,WNW,293,1.0,5.0,48,0.00,,,0.00,WeatherCatV1.11B39,2013-08-04 19:07:00,
2013-08-04 15:12:00,76.0,53.7,29.61,WNW,297,4.0,5.0,46,0.00,,,0.00,WeatherCatV1.11B39,2013-08-04 19:12:00,
2013-08-04 15:17:00,75.9,54.8,29.60,NW,313,0.0,1.0,48,0.00,,,0.00,WeatherCatV1.11B39,2013-08-04 19:17:00,
2013-08-04 15:22:00,76.1,55.0,29.60,ENE,77,0.0,0.0,48,0.00,,,0.00,WeatherCatV1.11B39,2013-08-04 19:22:00,
2013-08-04 15:27:00,76.4,55.2,29.60,NW,304,0.0,1.0,48,0.00,,,0.00,WeatherCatV1.11B39,2013-08-04 19:27:00,
2013-08-04 15:32:00,76.6,55.4,29.60,SE,127,0.0,2.0,48,0.00,,,0.00,WeatherCatV1.11B39,2013-08-04 19:32:00,
2013-08-04 15:37:00,76.7,56.1,29.59,SE,128,0.0,0.0,49,0.00,,,0.00,WeatherCatV1.11B39,2013-08-04 19:37:00,
2013-08-04 15:42:00,76.8,56.7,29.59,WNW,301,0.0,0.0,50,0.00,,,0.00,WeatherCatV1.11B39,2013-08-04 19:42:00,
2013-08-04 15:47:00,77.1,54.7,29.60,NNE,33,0.0,0.0,46,0.00,,,0.00,WeatherCatV1.11B39,2013-08-04 19:47:00,
2013-08-04 15:52:00,77.1,54.1,29.60,North,2,0.0,1.0,45,0.00,,,0.00,WeatherCatV1.11B39,2013-08-04 19:52:00,
2013-08-04 15:57:00,76.6,53.6,29.60,NW,311,5.0,7.0,45,0.00,,,0.00,WeatherCatV1.11B39,2013-08-04 19:57:00,
2013-08-04 16:02:00,76.2,55.1,29.60,WNW,299,0.0,1.0,48,0.00,,,0.00,WeatherCatV1.11B39,2013-08-04 20:02:00,
2013-08-04 16:07:00,76.1,55.0,29.60,WNW,295,0.0,0.0,48,0.00,,,0.00,WeatherCatV1.11B39,2013-08-04 20:07:00,
2013-08-04 16:12:00,75.9,55.9,29.61,NW,311,5.0,5.0,50,0.00,,,0.00,WeatherCatV1.11B39,2013-08-04 20:12:00,
2013-08-04 16:17:00,75.2,55.3,29.61,NW,307,3.0,3.0,50,0.00,,,0.00,WeatherCatV1.11B39,2013-08-04 20:17:00,
2013-08-04 16:22:00,74.3,53.9,29.61,WNW,294,0.0,0.0,49,0.00,,,0.00,WeatherCatV1.11B39,2013-08-04 20:22:00,
2013-08-04 16:27:00,73.5,54.2,29.61,West,279,4.0,6.0,51,0.00,,,0.00,WeatherCatV1.11B39,2013-08-04 20:27:00,
2013-08-04 16:32:00,72.8,55.2,29.62,WNW,303,0.0,10.0,54,0.00,,,0.00,WeatherCatV1.11B39,2013-08-04 20:32:00,
2013-08-04 16:37:00,72.1,55.5,29.62,NNW,328,7.0,7.0,56,0.00,,,0.00,WeatherCatV1.11B39,2013-08-04 20:37:00,
2013-08-04 16:42:00,71.6,55.1,29.62,NW,319,7.0,8.0,56,0.00,,,0.00,WeatherCatV1.11B39,2013-08-04 20:42:00,
2013-08-04 16:47:00,71.2,56.1,29.62,NW,317,4.0,8.0,59,0.00,,,0.00,WeatherCatV1.11B39,2013-08-04 20:47:00,
2013-08-04 16:52:00,71.2,57.0,29.62,West,278,5.0,7.0,61,0.00,,,0.00,WeatherCatV1.11B39,2013-08-04 20:52:00,
2013-08-04 16:57:00,71.4,56.3,29.62,WNW,299,4.0,7.0,59,0.00,,,0.00,WeatherCatV1.11B39,2013-08-04 20:57:00,
2013-08-04 17:02:00,71.6,56.5,29.62,NW,314,4.0,6.0,59,0.00,,,0.00,WeatherCatV1.11B39,2013-08-04 21:02:00,
2013-08-04 17:07:00,71.6,56.5,29.62,North,350,4.0,8.0,59,0.00,,,0.00,WeatherCatV1.11B39,2013-08-04 21:07:00,
2013-08-04 17:12:00,71.6,57.0,29.62,NW,304,2.0,7.0,60,0.00,,,0.00,WeatherCatV1.11B39,2013-08-04 21:12:00,
2013-08-04 17:17:00,71.7,58.0,29.62,WNW,290,0.0,3.0,62,0.00,,,0.00,WeatherCatV1.11B39,2013-08-04 21:17:00,
2013-08-04 17:22:00,71.9,57.2,29.62,WNW,290,0.0,0.0,60,0.00,,,0.00,WeatherCatV1.11B39,2013-08-04 21:22:00,
2013-08-04 17:27:00,72.3,57.6,29.63,NW,305,0.0,7.0,60,0.00,,,0.00,WeatherCatV1.11B39,2013-08-04 21:27:00,
2013-08-04 17:32:00,72.8,56.7,29.62,WNW,297,0.0,3.0,57,0.00,,,0.00,WeatherCatV1.11B39,2013-08-04 21:32:00,
2013-08-04 17:37:00,72.9,54.8,29.62,West,278,0.0,5.0,53,0.00,,,0.00,WeatherCatV1.11B39,2013-08-04 21:37:00,
2013-08-04 17:42:00,73.3,54.1,29.62,NNW,331,0.0,5.0,51,0.00,,,0.00,WeatherCatV1.11B39,2013-08-04 21:42:00,
2013-08-04 17:47:00,73.6,54.3,29.62,WNW,295,0.0,4.0,51,0.00,,,0.00,WeatherCatV1.11B39,2013-08-04 21:47:00,
2013-08-04 17:52:00,73.8,52.9,29.62,WNW,291,0.0,0.0,48,0.00,,,0.00,WeatherCatV1.11B39,2013-08-04 21:52:00,
2013-08-04 17:57:00,73.9,53.5,29.62,NW,304,0.0,6.0,49,0.00,,,0.00,WeatherCatV1.11B39,2013-08-04 21:57:00,
2013-08-04 18:02:00,73.6,53.2,29.63,NNW,344,0.0,7.0,49,0.00,,,0.00,WeatherCatV1.11B39,2013-08-04 22:02:00,
2013-08-04 18:07:00,73.1,53.3,29.62,WNW,294,0.0,0.0,50,0.00,,,0.00,WeatherCatV1.11B39,2013-08-04 22:07:00,
2013-08-04 18:12:00,72.6,54.0,29.62,WNW,294,0.0,0.0,52,0.00,,,0.00,WeatherCatV1.11B39,2013-08-04 22:12:00,
2013-08-04 18:17:00,72.3,54.2,29.63,WNW,294,0.0,0.0,53,0.00,,,0.00,WeatherCatV1.11B39,2013-08-04 22:17:00,
2013-08-04 18:22:00,71.9,53.8,29.63,WNW,294,0.0,0.0,53,0.00,,,0.00,WeatherCatV1.11B39,2013-08-04 22:22:00,
2013-08-04 18:27:00,71.9,53.8,29.63,WNW,296,0.0,0.0,53,0.00,,,0.00,WeatherCatV1.11B39,2013-08-04 22:27:00,
2013-08-04 18:32:00,71.9,54.3,29.63,WNW,297,0.0,0.0,54,0.00,,,0.00,WeatherCatV1.11B39,2013-08-04 22:32:00,
2013-08-04 18:37:00,71.9,54.3,29.63,WNW,297,0.0,0.0,54,0.00,,,0.00,WeatherCatV1.11B39,2013-08-04 22:37:00,
2013-08-04 18:42:00,71.9,53.8,29.64,WNW,297,0.0,0.0,53,0.00,,,0.00,WeatherCatV1.11B39,2013-08-04 22:42:00,
2013-08-04 18:47:00,71.8,53.7,29.65,WNW,296,0.0,1.0,53,0.00,,,0.00,WeatherCatV1.11B39,2013-08-04 22:47:00,
2013-08-04 18:52:00,71.6,53.5,29.65,WNW,292,0.0,4.0,53,0.00,,,0.00,WeatherCatV1.11B39,2013-08-04 22:52:00,
2013-08-04 18:57:00,71.6,55.1,29.65,WNW,293,0.0,0.0,56,0.00,,,0.00,WeatherCatV1.11B39,2013-08-04 22:57:00,
2013-08-04 19:02:00,71.6,54.6,29.65,WNW,293,0.0,0.0,55,0.00,,,0.00,WeatherCatV1.11B39,2013-08-04 23:02:00,
2013-08-04 19:07:00,71.6,55.5,29.65,WNW,293,0.0,0.0,57,0.00,,,0.00,WeatherCatV1.11B39,2013-08-04 23:07:00,
2013-08-04 19:12:00,71.4,55.4,29.65,WNW,293,0.0,0.0,57,0.00,,,0.00,WeatherCatV1.11B39,2013-08-04 23:12:00,
2013-08-04 19:17:00,71.4,54.9,29.65,WNW,293,0.0,0.0,56,0.00,,,0.00,WeatherCatV1.11B39,2013-08-04 23:17:00,
2013-08-04 19:22:00,71.2,55.2,29.64,WNW,293,0.0,0.0,57,0.00,,,0.00,WeatherCatV1.11B39,2013-08-04 23:22:00,
2013-08-04 19:27:00,71.1,56.0,29.65,WNW,294,0.0,0.0,59,0.00,,,0.00,WeatherCatV1.11B39,2013-08-04 23:27:00,
2013-08-04 19:32:00,70.9,55.8,29.65,WNW,295,0.0,0.0,59,0.00,,,0.00,WeatherCatV1.11B39,2013-08-04 23:32:00,
2013-08-04 19:37:00,70.7,55.7,29.66,WNW,295,0.0,0.0,59,0.00,,,0.00,WeatherCatV1.11B39,2013-08-04 23:37:00,
2013-08-04 19:42:00,70.6,56.0,29.66,WNW,295,0.0,0.0,60,0.00,,,0.00,WeatherCatV1.11B39,2013-08-04 23:42:00,
2013-08-04 19:47:00,70.4,55.8,29.66,WNW,295,0.0,0.0,60,0.00,,,0.00,WeatherCatV1.11B39,2013-08-04 23:47:00,
2013-08-04 19:52:00,70.1,56.0,29.66,WNW,295,0.0,0.0,61,0.00,,,0.00,WeatherCatV1.11B39,2013-08-04 23:52:00,
2013-08-04 19:55:00,69.7,55.6,29.67,WNW,295,0.0,0.0,61,0.00,,,0.00,WeatherCatV1.11B39,2013-08-04 23:55:00,
2013-08-04 20:00:00,69.2,55.2,29.67,NW,309,0.0,0.0,61,0.00,,,0.00,WeatherCatV1.11B39,2013-08-05 00:00:00,
2013-08-04 20:05:00,68.9,55.8,29.67,NW,309,0.0,0.0,63,0.00,,,0.00,WeatherCatV1.11B39,2013-08-05 00:05:00,
2013-08-04 20:10:00,68.6,55.5,29.67,NW,309,0.0,0.0,63,0.00,,,0.00,WeatherCatV1.11B39,2013-08-05 00:10:00,
2013-08-04 20:15:00,68.3,55.6,29.67,NW,309,0.0,0.0,64,0.00,,,0.00,WeatherCatV1.11B39,2013-08-05 00:15:00,
2013-08-04 20:20:00,67.9,55.7,29.68,NW,309,0.0,0.0,65,0.00,,,0.00,WeatherCatV1.11B39,2013-08-05 00:20:00,
2013-08-04 20:25:00,67.4,55.2,29.68,NW,309,0.0,0.0,65,0.00,,,0.00,WeatherCatV1.11B39,2013-08-05 00:25:00,
2013-08-04 20:30:00,67.0,54.8,29.67,NW,309,0.0,0.0,65,0.00,,,0.00,WeatherCatV1.11B39,2013-08-05 00:30:00,
2013-08-04 20:35:00,66.6,54.5,29.68,NW,309,0.0,0.0,65,0.00,,,0.00,WeatherCatV1.11B39,2013-08-05 00:35:00,
2013-08-04 20:40:00,66.4,54.3,29.68,NW,309,0.0,0.0,65,0.00,,,0.00,WeatherCatV1.11B39,2013-08-05 00:40:00,
2013-08-04 20:45:00,66.1,54.0,29.68,NW,309,0.0,0.0,65,0.00,,,0.00,WeatherCatV1.11B39,2013-08-05 00:45:00,
2013-08-04 20:50:00,65.9,53.8,29.69,NW,309,0.0,0.0,65,0.00,,,0.00,WeatherCatV1.11B39,2013-08-05 00:50:00,
2013-08-04 20:55:00,65.6,53.9,29.69,NW,309,0.0,0.0,66,0.00,,,0.00,WeatherCatV1.11B39,2013-08-05 00:55:00,
2013-08-04 21:00:00,65.5,54.2,29.69,NW,309,0.0,0.0,67,0.00,,,0.00,WeatherCatV1.11B39,2013-08-05 01:00:00,
2013-08-04 21:05:00,65.1,53.9,29.69,NW,309,0.0,0.0,67,0.00,,,0.00,WeatherCatV1.11B39,2013-08-05 01:05:00,
2013-08-04 21:10:00,64.8,54.4,29.69,NW,310,0.0,0.0,69,0.00,,,0.00,WeatherCatV1.11B39,2013-08-05 01:10:00,
2013-08-04 21:15:00,64.2,54.6,29.69,NW,310,0.0,0.0,71,0.00,,,0.00,WeatherCatV1.11B39,2013-08-05 01:15:00,
2013-08-04 21:20:00,63.7,54.5,29.70,NW,310,0.0,0.0,72,0.00,,,0.00,WeatherCatV1.11B39,2013-08-05 01:20:00,
2013-08-04 21:25:00,63.3,54.5,29.70,NW,310,0.0,0.0,73,0.00,,,0.00,WeatherCatV1.11B39,2013-08-05 01:25:00,
2013-08-04 21:30:00,63.2,54.8,29.69,NW,309,0.0,0.0,74,0.00,,,0.00,WeatherCatV1.11B39,2013-08-05 01:30:00,
2013-08-04 21:35:00,63.0,55.3,29.70,NW,309,0.0,0.0,76,0.00,,,0.00,WeatherCatV1.11B39,2013-08-05 01:35:00,
2013-08-04 21:40:00,62.9,55.9,29.71,NW,309,0.0,0.0,78,0.00,,,0.00,WeatherCatV1.11B39,2013-08-05 01:40:00,
2013-08-04 21:45:00,62.5,55.9,29.70,NW,309,0.0,0.0,79,0.00,,,0.00,WeatherCatV1.11B39,2013-08-05 01:45:00,
2013-08-04 21:50:00,62.1,55.2,29.71,NW,310,0.0,0.0,78,0.00,,,0.00,WeatherCatV1.11B39,2013-08-05 01:50:00,
2013-08-04 21:55:00,61.7,55.1,29.70,NNW,337,0.0,0.0,79,0.00,,,0.00,WeatherCatV1.11B39,2013-08-05 01:55:00,
2013-08-04 22:00:00,61.3,54.7,29.70,NNW,337,0.0,0.0,79,0.00,,,0.00,WeatherCatV1.11B39,2013-08-05 02:00:00,
2013-08-04 22:06:00,61.2,55.0,29.71,NNW,337,0.0,0.0,80,0.00,,,0.00,WeatherCatV1.11B39,2013-08-05 02:06:00,
2013-08-04 22:11:00,61.3,55.4,29.70,NNW,337,0.0,0.0,81,0.00,,,0.00,WeatherCatV1.11B39,2013-08-05 02:11:00,
2013-08-04 22:16:00,61.3,55.8,29.70,NNW,337,0.0,0.0,82,0.00,,,0.00,WeatherCatV1.11B39,2013-08-05 02:16:00,
2013-08-04 22:21:00,61.2,55.7,29.70,NNW,337,0.0,0.0,82,0.00,,,0.00,WeatherCatV1.11B39,2013-08-05 02:21:00,
2013-08-04 22:26:00,61.3,56.1,29.70,WNW,292,0.0,0.0,83,0.00,,,0.00,WeatherCatV1.11B39,2013-08-05 02:26:00,
2013-08-04 22:31:00,61.8,56.2,29.71,WNW,292,0.0,0.0,82,0.00,,,0.00,WeatherCatV1.11B39,2013-08-05 02:31:00,
2013-08-04 22:36:00,61.8,55.9,29.70,WNW,292,0.0,0.0,81,0.00,,,0.00,WeatherCatV1.11B39,2013-08-05 02:36:00,
2013-08-04 22:41:00,61.8,55.2,29.71,WNW,292,0.0,0.0,79,0.00,,,0.00,WeatherCatV1.11B39,2013-08-05 02:41:00,
2013-08-04 22:46:00,61.8,55.2,29.70,WNW,292,0.0,0.0,79,0.00,,,0.00,WeatherCatV1.11B39,2013-08-05 02:46:00,
2013-08-04 22:51:00,61.6,54.3,29.71,WNW,292,0.0,0.0,77,0.00,,,0.00,WeatherCatV1.11B39,2013-08-05 02:51:00,
2013-08-04 22:56:00,61.6,54.0,29.71,WNW,292,0.0,0.0,76,0.00,,,0.00,WeatherCatV1.11B39,2013-08-05 02:56:00,
2013-08-04 23:01:00,61.5,53.1,29.71,WNW,292,0.0,0.0,74,0.00,,,0.00,WeatherCatV1.11B39,2013-08-05 03:01:00,
2013-08-04 23:06:00,61.5,52.8,29.71,WNW,296,0.0,0.0,73,0.00,,,0.00,WeatherCatV1.11B39,2013-08-05 03:06:00,
2013-08-04 23:11:00,61.5,52.4,29.72,WNW,296,0.0,0.0,72,0.00,,,0.00,WeatherCatV1.11B39,2013-08-05 03:11:00,
2013-08-04 23:16:00,61.3,52.2,29.71,WNW,296,0.0,0.0,72,0.00,,,0.00,WeatherCatV1.11B39,2013-08-05 03:16:00,
2013-08-04 23:21:00,61.1,52.0,29.72,WNW,296,0.0,0.0,72,0.00,,,0.00,WeatherCatV1.11B39,2013-08-05 03:21:00,
2013-08-04 23:26:00,61.2,52.1,29.71,WNW,296,0.0,0.0,72,0.00,,,0.00,WeatherCatV1.11B39,2013-08-05 03:26:00,
2013-08-04 23:31:00,61.0,52.3,29.72,WNW,296,0.0,0.0,73,0.00,,,0.00,WeatherCatV1.11B39,2013-08-05 03:31:00,
2013-08-04 23:36:00,61.0,52.6,29.71,WNW,296,0.0,0.0,74,0.00,,,0.00,WeatherCatV1.11B39,2013-08-05 03:36:00,
2013-08-04 23:41:00,61.0,53.7,29.71,WNW,296,0.0,0.0,77,0.00,,,0.00,WeatherCatV1.11B39,2013-08-05 03:41:00,
2013-08-04 23:46:00,60.9,53.6,29.72,WNW,296,0.0,0.0,77,0.00,,,0.00,WeatherCatV1.11B39,2013-08-05 03:46:00,
2013-08-04 23:51:00,60.5,53.6,29.72,WNW,296,0.0,0.0,78,0.00,,,0.00,WeatherCatV1.11B39,2013-08-05 03:51:00,
2013-08-04 23:56:00,60.1,53.6,29.72,WNW,300,0.0,0.0,79,0.00,,,0.00,WeatherCatV1.11B39,2013-08-05 03:56:00,